Time;durP1;ratioP1;P1;durP2;ratioP2;P2;SDS_P1;SDS_P2;PMS_P1;PMS_P2;Temp;Humidity;BMP_temperature;BMP_pressure;BME280_temperature;BME280_humidity;BME280_pressure;Samples;Min_cycle;Max_cycle;Signal;HPM_P1;HPM_P2
2022/06/18 00:00:30;;;;;;;1.63;1.10;;;24.80;99.90;;;;;;1023150;29;20168;-67
2022/06/18 00:01:01;;;;;;;1.30;1.20;;;24.70;99.90;;;;;;1023803;29;20058;-66
2022/06/18 00:01:34;;;;;;;2.63;1.67;;;24.70;99.90;;;;;;1023251;29;20412;-67
2022/06/18 00:02:11;;;;;;;2.40;1.48;;;24.80;99.90;;;;;;1023696;28;20086;-66
2022/06/18 00:02:42;;;;;;;5.65;1.98;;;24.70;99.90;;;;;;1026971;28;20382;-68
2022/06/18 00:03:14;;;;;;;1.73;1.25;;;24.70;99.90;;;;;;1031556;28;20118;-68
2022/06/18 00:03:44;;;;;;;1.80;1.40;;;24.70;99.90;;;;;;1030974;28;20645;-67
2022/06/18 00:04:21;;;;;;;3.23;1.80;;;24.70;99.90;;;;;;1031203;28;20537;-67
2022/06/18 00:04:51;;;;;;;2.42;1.65;;;24.70;99.90;;;;;;1030768;28;20092;-68
2022/06/18 00:05:22;;;;;;;2.03;1.70;;;24.70;99.90;;;;;;1031288;28;20046;-67
2022/06/18 00:05:56;;;;;;;2.00;1.53;;;24.70;99.90;;;;;;1031272;28;20026;-67
2022/06/18 00:06:28;;;;;;;1.30;1.20;;;24.70;99.90;;;;;;1031395;28;20023;-67
2022/06/18 00:07:05;;;;;;;2.00;1.30;;;24.70;99.90;;;;;;1031363;28;20556;-67
2022/06/18 00:07:45;;;;;;;2.63;1.30;;;24.70;99.90;;;;;;1031288;28;20018;-67
2022/06/18 00:08:21;;;;;;;1.67;1.58;;;24.70;99.90;;;;;;1031240;28;20392;-68
2022/06/18 00:08:51;;;;;;;2.42;2.08;;;24.70;99.90;;;;;;1030877;28;20105;-66
2022/06/18 00:09:36;;;;;;;4.17;1.50;;;24.70;99.90;;;;;;1031270;28;20019;-66
2022/06/18 00:10:12;;;;;;;3.00;1.83;;;24.70;99.90;;;;;;1031223;28;20112;-68
2022/06/18 00:10:43;;;;;;;1.40;1.30;;;24.70;99.90;;;;;;1031437;28;20070;-68
2022/06/18 00:13:41;;;;;;;1.83;1.67;;;24.60;99.90;;;;;;1031273;28;20671;-67
2022/06/18 00:14:12;;;;;;;3.22;1.60;;;24.70;99.90;;;;;;1031379;28;20018;-67
2022/06/18 00:14:43;;;;;;;2.27;1.90;;;24.70;99.90;;;;;;1031555;28;20026;-67
2022/06/18 00:15:25;;;;;;;1.48;1.30;;;24.70;99.90;;;;;;1030889;28;20061;-67
2022/06/18 00:15:58;;;;;;;1.75;1.58;;;24.60;99.90;;;;;;1030920;28;20031;-67
2022/06/18 00:16:31;;;;;;;1.70;1.52;;;24.60;99.90;;;;;;1031226;28;20590;-67
2022/06/18 00:17:18;;;;;;;2.33;1.67;;;24.60;99.90;;;;;;1030787;28;20164;-67
2022/06/18 00:17:49;;;;;;;2.50;1.13;;;24.60;99.90;;;;;;1028171;28;20102;-68
2022/06/18 00:18:19;;;;;;;3.10;1.50;;;24.60;99.90;;;;;;1026844;28;20018;-67
2022/06/18 00:18:50;;;;;;;1.70;1.30;;;24.60;99.90;;;;;;1027334;28;20027;-67
2022/06/18 00:19:21;;;;;;;1.87;1.30;;;24.60;99.90;;;;;;1027591;28;20022;-67
2022/06/18 00:19:51;;;;;;;1.57;1.47;;;24.60;99.90;;;;;;1027380;28;20031;-67
2022/06/18 00:20:24;;;;;;;1.47;1.37;;;24.60;99.90;;;;;;1027294;28;20050;-67
2022/06/18 00:20:55;;;;;;;1.63;1.52;;;24.60;99.90;;;;;;1027504;28;20478;-67
2022/06/18 00:21:26;;;;;;;2.08;1.55;;;24.70;99.90;;;;;;1027190;28;20046;-67
2022/06/18 00:21:57;;;;;;;2.30;1.50;;;24.70;99.90;;;;;;1030957;28;20030;-67
2022/06/18 00:22:29;;;;;;;2.00;1.70;;;24.70;99.90;;;;;;1031181;28;20429;-67
2022/06/18 00:23:02;;;;;;;2.63;1.80;;;24.60;99.90;;;;;;1031536;28;20429;-67
2022/06/18 00:23:32;;;;;;;1.83;1.50;;;24.60;99.90;;;;;;1030590;28;20545;-67
2022/06/18 00:24:12;;;;;;;1.57;1.43;;;24.70;99.90;;;;;;1031143;28;20094;-67
2022/06/18 00:24:43;;;;;;;3.95;1.80;;;24.60;99.90;;;;;;1030758;28;20138;-66
2022/06/18 00:25:22;;;;;;;6.82;1.73;;;24.60;99.90;;;;;;1031330;28;20026;-68
2022/06/18 00:25:53;;;;;;;2.97;1.60;;;24.60;99.90;;;;;;1031285;28;20065;-68
2022/06/18 00:26:23;;;;;;;2.87;1.60;;;24.60;99.90;;;;;;1031549;28;20028;-67
2022/06/18 00:26:54;;;;;;;2.57;1.90;;;24.60;99.90;;;;;;1031266;28;20018;-68
2022/06/18 00:27:25;;;;;;;3.20;1.60;;;24.60;99.90;;;;;;1031561;28;20121;-68
2022/06/18 00:27:56;;;;;;;2.23;1.70;;;24.60;99.90;;;;;;1031210;28;20037;-68
2022/06/18 00:28:29;;;;;;;3.08;1.70;;;24.60;99.90;;;;;;1031372;28;20138;-67
2022/06/18 00:29:00;;;;;;;1.73;1.45;;;24.70;99.90;;;;;;1031347;28;20018;-68
2022/06/18 00:29:30;;;;;;;2.23;1.53;;;24.60;99.90;;;;;;1031422;28;20029;-66
2022/06/18 00:30:01;;;;;;;1.90;1.70;;;24.60;99.90;;;;;;1031397;28;20450;-66
2022/06/18 00:30:31;;;;;;;2.37;1.70;;;24.60;99.90;;;;;;1030871;28;20828;-67
2022/06/18 00:31:02;;;;;;;1.93;1.67;;;24.60;99.90;;;;;;1031249;28;20101;-67
2022/06/18 00:31:33;;;;;;;2.63;1.80;;;24.60;99.90;;;;;;1031526;28;20022;-67
2022/06/18 00:32:04;;;;;;;1.63;1.53;;;24.60;99.90;;;;;;1031492;28;20744;-67
2022/06/18 00:32:34;;;;;;;3.03;1.95;;;24.50;99.90;;;;;;1030928;28;20029;-67
2022/06/18 00:33:05;;;;;;;2.03;1.57;;;24.50;99.90;;;;;;1030983;28;20101;-68
2022/06/18 00:33:39;;;;;;;2.60;1.70;;;24.50;99.90;;;;;;1031030;28;20098;-68
2022/06/18 00:34:09;;;;;;;2.40;1.70;;;24.50;99.90;;;;;;1030865;28;20442;-68
2022/06/18 00:34:40;;;;;;;2.20;1.93;;;24.50;99.90;;;;;;1031153;28;20368;-68
2022/06/18 00:35:12;;;;;;;2.67;1.80;;;24.60;99.90;;;;;;1030901;28;20053;-68
2022/06/18 00:35:44;;;;;;;2.15;1.48;;;24.50;99.90;;;;;;1031563;28;20038;-67
2022/06/18 00:36:18;;;;;;;1.75;1.50;;;24.50;99.90;;;;;;1030661;28;20030;-67
2022/06/18 00:36:48;;;;;;;2.60;1.90;;;24.50;99.90;;;;;;1027148;28;20593;-67
2022/06/18 00:37:19;;;;;;;4.73;1.47;;;24.50;99.90;;;;;;1027130;28;20459;-67
2022/06/18 00:37:59;;;;;;;1.90;1.63;;;24.50;99.90;;;;;;1026979;28;20026;-67
2022/06/18 00:38:44;;;;;;;2.28;1.73;;;24.50;99.90;;;;;;1027363;28;20015;-67
2022/06/18 00:39:17;;;;;;;2.67;1.98;;;24.50;99.90;;;;;;1027242;28;20026;-67
2022/06/18 00:39:50;;;;;;;2.58;2.00;;;24.50;99.90;;;;;;1027624;28;20031;-67
2022/06/18 00:40:26;;;;;;;1.90;1.67;;;24.50;99.90;;;;;;1027059;28;20031;-67
2022/06/18 00:40:58;;;;;;;2.17;1.75;;;24.50;99.90;;;;;;1027426;28;20089;-67
2022/06/18 00:41:28;;;;;;;2.30;2.05;;;24.50;99.90;;;;;;1029081;28;20030;-67
2022/06/18 00:42:06;;;;;;;2.27;1.57;;;24.50;99.90;;;;;;1031505;28;20029;-67
2022/06/18 00:42:38;;;;;;;1.52;1.42;;;24.50;99.90;;;;;;1031214;28;20020;-67
2022/06/18 00:43:34;;;;;;;1.98;1.50;;;24.50;99.90;;;;;;1031394;28;20022;-67
2022/06/18 00:44:14;;;;;;;2.72;1.85;;;24.50;99.90;;;;;;1031480;28;20045;-67
2022/06/18 00:44:51;;;;;;;2.50;1.60;;;24.40;99.90;;;;;;1031295;28;20054;-68
2022/06/18 00:45:26;;;;;;;1.55;1.38;;;24.50;99.90;;;;;;1031255;28;20030;-67
2022/06/18 00:46:02;;;;;;;2.45;1.80;;;24.40;99.90;;;;;;1031255;28;20480;-67
2022/06/18 00:46:58;;;;;;;2.47;1.70;;;24.50;99.90;;;;;;1031100;28;20457;-66
2022/06/18 00:47:41;;;;;;;2.00;1.67;;;24.40;99.90;;;;;;1031254;28;20098;-67
2022/06/18 00:49:06;;;;;;;2.22;1.70;;;24.40;99.90;;;;;;1031522;28;20023;-67
2022/06/18 00:49:45;;;;;;;2.15;1.65;;;24.40;99.90;;;;;;1022558;29;20054;-68
2022/06/18 00:50:25;;;;;;;2.20;2.00;;;24.40;99.90;;;;;;1018795;29;20546;-68
2022/06/18 00:51:03;;;;;;;3.58;2.00;;;24.40;99.90;;;;;;1018475;29;20094;-67
2022/06/18 00:51:46;;;;;;;2.90;1.67;;;24.40;99.90;;;;;;1018807;29;20121;-67
2022/06/18 00:52:39;;;;;;;2.28;1.60;;;24.40;99.90;;;;;;1031275;28;20098;-66
2022/06/18 00:53:16;;;;;;;3.05;1.92;;;24.40;99.90;;;;;;1031246;28;20162;-68
2022/06/18 00:53:52;;;;;;;1.67;1.58;;;24.40;99.90;;;;;;1030747;28;20037;-67
2022/06/18 00:54:27;;;;;;;1.80;1.50;;;24.40;99.90;;;;;;1030913;28;20026;-67
2022/06/18 00:55:07;;;;;;;1.98;1.50;;;24.40;99.90;;;;;;1030903;28;20049;-67
2022/06/18 00:55:47;;;;;;;2.85;1.70;;;24.40;99.90;;;;;;1030900;28;20041;-66
2022/06/18 00:56:24;;;;;;;2.50;1.50;;;24.40;99.90;;;;;;1031210;28;20496;-67
2022/06/18 00:57:07;;;;;;;1.60;1.50;;;24.40;99.90;;;;;;1031159;28;20025;-67
2022/06/18 00:57:46;;;;;;;2.15;1.70;;;24.40;99.90;;;;;;1031290;28;20048;-68
2022/06/18 00:58:27;;;;;;;2.92;1.80;;;24.40;99.90;;;;;;1031123;28;20022;-67
2022/06/18 00:59:20;;;;;;;1.50;1.40;;;24.40;99.90;;;;;;1029386;28;20136;-67
2022/06/18 00:59:56;;;;;;;2.17;1.98;;;24.40;99.90;;;;;;1027379;28;20038;-67
2022/06/18 01:00:34;;;;;;;2.75;1.67;;;24.40;99.90;;;;;;1026880;28;20023;-67
2022/06/18 01:01:14;;;;;;;2.88;1.95;;;24.40;99.90;;;;;;1027458;28;20023;-67
2022/06/18 01:01:48;;;;;;;3.53;1.83;;;24.40;99.90;;;;;;1027268;28;20106;-67
2022/06/18 01:02:38;;;;;;;3.38;1.88;;;24.40;99.90;;;;;;1027092;28;20042;-68
2022/06/18 01:03:29;;;;;;;3.08;2.13;;;24.40;99.90;;;;;;1023592;29;20023;-67
2022/06/18 01:04:00;;;;;;;1.98;1.77;;;24.40;99.90;;;;;;1027424;28;20029;-69
2022/06/18 01:04:33;;;;;;;3.22;2.28;;;24.40;99.90;;;;;;1026995;28;20025;-69
2022/06/18 01:05:21;;;;;;;4.40;2.05;;;24.40;99.90;;;;;;1027420;28;20073;-67
2022/06/18 01:05:52;;;;;;;;;;;24.30;99.90;;;;;;1027763;28;20081;-67
2022/06/18 01:06:28;;;;;;;2.08;1.65;;;24.40;99.90;;;;;;1027162;28;19925;-67
2022/06/18 01:07:06;;;;;;;2.92;1.92;;;24.40;99.90;;;;;;1027120;28;20117;-68
2022/06/18 01:07:37;;;;;;;;;;;24.30;99.90;;;;;;1027697;28;20022;-66
2022/06/18 01:08:14;;;;;;;5.30;2.10;;;24.40;99.90;;;;;;1026959;28;19916;-68
2022/06/18 01:08:46;;;;;;;5.05;2.15;;;24.40;99.90;;;;;;1022467;28;20732;-68
2022/06/18 01:09:18;;;;;;;2.60;1.70;;;24.40;99.90;;;;;;1023008;29;20059;-67
2022/06/18 01:09:51;;;;;;;3.22;1.85;;;24.30;99.90;;;;;;1023789;28;20058;-68
2022/06/18 01:10:34;;;;;;;2.25;2.05;;;24.30;99.90;;;;;;1027001;28;20118;-68
2022/06/18 01:11:09;;;;;;;2.20;1.83;;;24.30;99.90;;;;;;1027008;28;20022;-70
2022/06/18 01:11:41;;;;;;;2.67;1.95;;;24.30;99.90;;;;;;1030634;28;20080;-68
2022/06/18 01:12:12;;;;;;;2.75;1.95;;;24.30;99.90;;;;;;1030877;28;20107;-67
2022/06/18 01:12:43;;;;;;;2.00;1.80;;;24.30;99.90;;;;;;1030644;28;20502;-67
2022/06/18 01:13:17;;;;;;;2.90;2.10;;;24.30;99.90;;;;;;1030644;28;20231;-67
2022/06/18 01:13:48;;;;;;;2.13;1.92;;;24.30;99.90;;;;;;1026469;28;20023;-67
2022/06/18 01:14:19;;;;;;;2.00;1.80;;;24.30;99.90;;;;;;1026913;28;20015;-67
2022/06/18 01:14:56;;;;;;;3.17;1.92;;;24.30;99.90;;;;;;1026730;28;20027;-68
2022/06/18 01:15:27;;;;;;;2.80;2.08;;;24.30;99.90;;;;;;1026942;28;20074;-67
2022/06/18 01:15:58;;;;;;;2.03;1.50;;;24.30;99.90;;;;;;1027347;28;20077;-67
2022/06/18 01:16:29;;;;;;;2.00;1.75;;;24.30;99.90;;;;;;1027087;28;20102;-67
2022/06/18 01:17:03;;;;;;;2.20;2.00;;;24.30;99.90;;;;;;1027162;28;20457;-68
2022/06/18 01:17:35;;;;;;;1.88;1.40;;;24.30;99.90;;;;;;1027148;28;20086;-67
2022/06/18 01:18:06;;;;;;;3.65;1.70;;;24.20;99.90;;;;;;1026983;28;20030;-68
2022/06/18 01:18:38;;;;;;;2.25;1.60;;;24.30;99.90;;;;;;1027236;28;20085;-67
2022/06/18 01:19:17;;;;;;;3.10;1.60;;;24.30;99.90;;;;;;1027141;28;20470;-67
2022/06/18 01:19:50;;;;;;;2.47;1.83;;;24.30;99.90;;;;;;1026750;28;20038;-67
2022/06/18 01:20:24;;;;;;;2.10;1.88;;;24.30;99.90;;;;;;1026484;28;20568;-67
2022/06/18 01:21:02;;;;;;;2.75;1.98;;;24.30;99.90;;;;;;1026831;28;20019;-67
2022/06/18 01:21:43;;;;;;;2.70;1.80;;;24.30;99.90;;;;;;1026778;28;20544;-67
2022/06/18 01:22:54;;;;;;;3.80;1.92;;;24.30;99.90;;;;;;1030744;28;20081;-68
2022/06/18 01:23:45;;;;;;;2.05;1.77;;;24.30;99.90;;;;;;1030994;28;20153;-69
2022/06/18 01:24:17;;;;;;;2.83;2.03;;;24.30;99.90;;;;;;1031202;28;20034;-67
2022/06/18 01:24:47;;;;;;;2.30;1.50;;;24.20;99.90;;;;;;1031049;28;20050;-67
2022/06/18 01:25:19;;;;;;;1.47;1.37;;;24.30;99.90;;;;;;1031229;28;20010;-67
2022/06/18 01:25:51;;;;;;;3.42;1.65;;;24.20;99.90;;;;;;1030998;28;20064;-67
2022/06/18 01:26:22;;;;;;;2.90;1.85;;;24.30;99.90;;;;;;1031238;28;20025;-66
2022/06/18 01:26:53;;;;;;;2.45;1.38;;;24.30;99.90;;;;;;1030688;28;20367;-66
2022/06/18 01:27:25;;;;;;;1.58;1.25;;;24.30;99.90;;;;;;1030824;28;20022;-68
2022/06/18 01:27:56;;;;;;;2.05;1.48;;;24.20;99.90;;;;;;1030679;28;20588;-68
2022/06/18 01:28:27;;;;;;;2.05;1.70;;;24.30;99.90;;;;;;1030754;28;20530;-68
2022/06/18 01:28:58;;;;;;;2.53;1.70;;;24.30;99.90;;;;;;1031202;28;20487;-67
2022/06/18 01:29:28;;;;;;;2.33;1.50;;;24.30;99.90;;;;;;1031150;28;20010;-68
2022/06/18 01:29:59;;;;;;;3.37;2.17;;;24.30;99.90;;;;;;1031095;28;20011;-68
2022/06/18 01:30:38;;;;;;;2.00;1.67;;;24.20;99.90;;;;;;1030994;28;20173;-67
2022/06/18 01:31:09;;;;;;;3.65;1.42;;;24.30;99.90;;;;;;1031199;28;20446;-67
2022/06/18 01:31:40;;;;;;;1.63;1.42;;;24.30;99.90;;;;;;1031140;28;20458;-67
2022/06/18 01:32:13;;;;;;;2.80;1.80;;;24.30;99.90;;;;;;1030952;28;20493;-68
2022/06/18 01:32:46;;;;;;;1.65;1.52;;;24.30;99.90;;;;;;1030589;28;20010;-69
2022/06/18 01:33:17;;;;;;;3.30;1.75;;;24.30;99.90;;;;;;1030782;28;20026;-68
2022/06/18 01:33:49;;;;;;;1.73;1.60;;;24.30;99.90;;;;;;1030819;28;20403;-68
2022/06/18 01:34:20;;;;;;;2.63;1.73;;;24.30;99.90;;;;;;1031083;28;20018;-68
2022/06/18 01:34:52;;;;;;;2.05;1.60;;;24.30;99.90;;;;;;1031040;28;20023;-68
2022/06/18 01:35:23;;;;;;;1.63;1.40;;;24.30;99.90;;;;;;1030782;28;20490;-68
2022/06/18 01:35:55;;;;;;;2.10;1.48;;;24.30;99.90;;;;;;1030692;28;20090;-68
2022/06/18 01:36:29;;;;;;;1.30;1.20;;;24.30;99.90;;;;;;1025278;28;20023;-69
2022/06/18 01:37:02;;;;;;;2.22;1.58;;;24.30;99.90;;;;;;1023565;28;20066;-67
2022/06/18 01:37:33;;;;;;;1.85;1.58;;;24.30;99.90;;;;;;1027407;28;20045;-68
2022/06/18 01:38:04;;;;;;;2.47;1.40;;;24.30;99.90;;;;;;1030777;28;20024;-68
2022/06/18 01:38:40;;;;;;;2.67;1.48;;;24.30;99.90;;;;;;1031072;28;20101;-68
2022/06/18 01:39:18;;;;;;;2.08;1.30;;;24.30;99.90;;;;;;1031314;28;20373;-68
2022/06/18 01:39:49;;;;;;;2.30;1.60;;;24.40;99.90;;;;;;1031130;28;20018;-68
2022/06/18 01:40:48;;;;;;;2.60;1.60;;;24.30;99.90;;;;;;1030810;28;20018;-68
2022/06/18 01:42:27;;;;;;;2.30;1.50;;;24.30;99.90;;;;;;1030517;28;20057;-68
2022/06/18 01:42:59;;;;;;;1.95;1.75;;;24.30;99.90;;;;;;1031223;28;20021;-68
2022/06/18 01:43:30;;;;;;;1.80;1.65;;;24.30;99.90;;;;;;1030717;28;20015;-67
2022/06/18 01:44:07;;;;;;;2.40;1.50;;;24.30;99.90;;;;;;1029443;28;20101;-67
2022/06/18 01:44:40;;;;;;;1.80;1.40;;;24.30;99.90;;;;;;1026924;28;20772;-67
2022/06/18 01:45:32;;;;;;;2.85;1.90;;;24.30;99.90;;;;;;1027218;28;20089;-67
2022/06/18 01:46:03;;;;;;;2.08;1.70;;;24.30;99.90;;;;;;1027180;28;20387;-67
2022/06/18 01:46:37;;;;;;;1.73;1.47;;;24.30;99.90;;;;;;1026952;28;20556;-69
2022/06/18 01:47:33;;;;;;;2.70;2.10;;;24.30;99.90;;;;;;1027139;28;20057;-68
2022/06/18 01:48:17;;;;;;;2.10;1.55;;;24.30;99.90;;;;;;1027352;28;20739;-67
2022/06/18 01:48:50;;;;;;;2.00;1.65;;;24.30;99.90;;;;;;1026769;28;20015;-67
2022/06/18 01:49:27;;;;;;;2.55;1.73;;;24.30;99.90;;;;;;1027257;28;20033;-68
2022/06/18 01:50:22;;;;;;;2.72;1.67;;;24.30;99.90;;;;;;1026603;28;20471;-68
2022/06/18 01:51:23;;;;;;;2.08;1.75;;;24.30;99.90;;;;;;1026535;28;20410;-67
2022/06/18 01:51:56;;;;;;;2.60;1.83;;;24.30;99.90;;;;;;1025191;28;20050;-68
2022/06/18 01:52:31;;;;;;;2.38;1.63;;;24.30;99.90;;;;;;1027096;28;20386;-68
2022/06/18 01:53:09;;;;;;;1.88;1.55;;;24.30;99.90;;;;;;1026936;28;20007;-68
2022/06/18 01:54:07;;;;;;;5.07;2.33;;;24.30;99.90;;;;;;1027174;28;20411;-69
2022/06/18 01:54:43;;;;;;;1.92;1.70;;;24.30;99.90;;;;;;1018794;28;20035;-68
2022/06/18 01:55:21;;;;;;;3.00;2.33;;;24.30;99.90;;;;;;1026551;28;20007;-68
2022/06/18 01:55:57;;;;;;;4.70;2.03;;;24.30;99.90;;;;;;1026217;28;20101;-68
2022/06/18 01:56:37;;;;;;;2.88;1.40;;;24.20;99.90;;;;;;1026785;28;20839;-68
2022/06/18 01:57:14;;;;;;;3.42;2.00;;;24.20;99.90;;;;;;1027089;28;20011;-68
2022/06/18 01:57:50;;;;;;;3.20;1.98;;;24.20;99.90;;;;;;1027090;28;20097;-68
2022/06/18 01:58:37;;;;;;;3.05;2.58;;;24.20;99.90;;;;;;1026792;28;20153;-67
2022/06/18 01:59:14;;;;;;;2.63;1.65;;;24.20;99.90;;;;;;1026432;28;20027;-68
2022/06/18 01:59:52;;;;;;;3.63;1.95;;;24.20;99.90;;;;;;1026821;28;20097;-68
2022/06/18 02:00:26;;;;;;;1.92;1.73;;;24.20;99.90;;;;;;1026473;28;20030;-68
2022/06/18 02:00:58;;;;;;;5.47;2.00;;;24.20;99.90;;;;;;1026973;28;20254;-68
2022/06/18 02:01:35;;;;;;;3.45;2.22;;;24.20;99.90;;;;;;1026727;28;20019;-68
2022/06/18 02:02:06;;;;;;;2.63;1.80;;;24.20;99.90;;;;;;1026958;28;20097;-68
2022/06/18 02:02:37;;;;;;;2.87;1.57;;;24.20;99.90;;;;;;1026911;28;20068;-68
2022/06/18 02:03:08;;;;;;;2.43;1.87;;;24.20;99.90;;;;;;1026976;28;20014;-68
2022/06/18 02:03:39;;;;;;;3.35;2.15;;;24.20;99.90;;;;;;1026757;28;20015;-68
2022/06/18 02:04:10;;;;;;;2.53;2.00;;;24.20;99.90;;;;;;1027003;28;20023;-68
2022/06/18 02:04:43;;;;;;;2.33;1.70;;;24.20;99.90;;;;;;1026411;28;20519;-68
2022/06/18 02:05:15;;;;;;;1.98;1.73;;;24.20;99.90;;;;;;1026771;28;20019;-67
2022/06/18 02:05:46;;;;;;;2.00;1.52;;;24.20;99.90;;;;;;1026547;28;20041;-68
2022/06/18 02:06:16;;;;;;;1.40;1.30;;;24.20;99.90;;;;;;1026637;28;20026;-67
2022/06/18 02:06:49;;;;;;;3.30;1.63;;;24.20;99.90;;;;;;1026418;28;20573;-67
2022/06/18 02:07:20;;;;;;;2.42;1.80;;;24.20;99.90;;;;;;1026832;28;20781;-67
2022/06/18 02:07:51;;;;;;;2.58;1.75;;;24.20;99.90;;;;;;1026616;28;20019;-68
2022/06/18 02:08:22;;;;;;;2.28;1.50;;;24.20;99.90;;;;;;1026980;28;20030;-67
2022/06/18 02:08:53;;;;;;;2.50;1.97;;;24.20;99.90;;;;;;1026326;28;20117;-67
2022/06/18 02:09:36;;;;;;;2.30;1.85;;;24.20;99.90;;;;;;1026650;28;20015;-67
2022/06/18 02:10:28;;;;;;;1.73;1.48;;;24.20;99.90;;;;;;1026688;28;20137;-66
2022/06/18 02:11:03;;;;;;;1.85;1.58;;;24.20;99.90;;;;;;1026969;28;20097;-68
2022/06/18 02:11:34;;;;;;;2.67;1.80;;;24.20;99.90;;;;;;1026930;28;20026;-68
2022/06/18 02:12:10;;;;;;;2.05;1.40;;;24.20;99.90;;;;;;1026895;28;20025;-68
2022/06/18 02:12:41;;;;;;;4.07;1.95;;;24.20;99.90;;;;;;1026845;28;20052;-68
2022/06/18 02:13:13;;;;;;;1.95;1.60;;;24.20;99.90;;;;;;1026890;28;20018;-67
2022/06/18 02:14:00;;;;;;;2.00;1.77;;;24.20;99.90;;;;;;1026416;28;20046;-67
2022/06/18 02:14:32;;;;;;;1.85;1.65;;;24.20;99.90;;;;;;1026652;28;20165;-68
2022/06/18 02:15:08;;;;;;;2.38;1.55;;;24.20;99.90;;;;;;1026414;28;20050;-67
2022/06/18 02:15:43;;;;;;;1.58;1.48;;;24.20;99.90;;;;;;1026870;28;20026;-67
2022/06/18 02:16:18;;;;;;;3.28;2.00;;;24.30;99.90;;;;;;1026896;28;20106;-67
2022/06/18 02:16:51;;;;;;;2.50;1.50;;;24.20;99.90;;;;;;1026864;28;20038;-67
2022/06/18 02:17:23;;;;;;;2.42;2.03;;;24.20;99.90;;;;;;1026585;28;20019;-68
2022/06/18 02:17:55;;;;;;;2.60;2.35;;;24.20;99.90;;;;;;1026790;28;20117;-68
2022/06/18 02:18:28;;;;;;;1.90;1.80;;;24.20;99.90;;;;;;1022453;28;20059;-68
2022/06/18 02:19:01;;;;;;;1.70;1.58;;;24.20;99.90;;;;;;1023428;28;20517;-67
2022/06/18 02:19:38;;;;;;;2.80;1.92;;;24.20;99.90;;;;;;1026538;28;20019;-67
2022/06/18 02:20:13;;;;;;;2.13;1.70;;;24.20;99.90;;;;;;1026656;28;20031;-67
2022/06/18 02:20:49;;;;;;;2.92;2.03;;;24.20;99.90;;;;;;1027316;28;20025;-67
2022/06/18 02:21:22;;;;;;;2.30;1.75;;;24.20;99.90;;;;;;1026801;28;20019;-68
2022/06/18 02:21:55;;;;;;;1.90;1.67;;;24.20;99.90;;;;;;1029950;28;20053;-66
2022/06/18 02:22:36;;;;;;;2.10;1.75;;;24.20;99.90;;;;;;1030722;28;20386;-68
2022/06/18 02:23:07;;;;;;;3.10;2.05;;;24.20;99.90;;;;;;1031119;28;20092;-68
2022/06/18 02:23:38;;;;;;;2.27;1.60;;;24.20;99.90;;;;;;1030790;28;20513;-68
2022/06/18 02:24:09;;;;;;;2.20;2.00;;;24.20;99.90;;;;;;1030992;28;20335;-68
2022/06/18 02:24:40;;;;;;;3.13;1.97;;;24.20;99.90;;;;;;1030800;28;20559;-68
2022/06/18 02:25:13;;;;;;;1.70;1.60;;;24.20;99.90;;;;;;1030976;28;20018;-68
2022/06/18 02:25:44;;;;;;;2.47;1.95;;;24.20;99.90;;;;;;1030681;28;20030;-68
2022/06/18 02:26:15;;;;;;;2.80;1.60;;;24.20;99.90;;;;;;1026451;28;20022;-68
2022/06/18 02:26:47;;;;;;;2.13;1.53;;;24.20;99.90;;;;;;1026515;28;20023;-67
2022/06/18 02:27:18;;;;;;;3.00;1.80;;;24.20;99.90;;;;;;1022925;28;20062;-68
2022/06/18 02:27:54;;;;;;;2.77;1.90;;;24.20;99.90;;;;;;1026706;28;20054;-67
2022/06/18 02:28:29;;;;;;;2.13;1.92;;;24.20;99.90;;;;;;1030815;28;20102;-68
2022/06/18 02:29:00;;;;;;;1.70;1.50;;;24.10;99.90;;;;;;1028624;28;20019;-67
2022/06/18 02:29:32;;;;;;;1.87;1.40;;;24.20;99.90;;;;;;1026867;28;20118;-68
2022/06/18 02:30:03;;;;;;;1.73;1.40;;;24.10;99.90;;;;;;1027014;28;20037;-68
2022/06/18 02:30:35;;;;;;;1.67;1.58;;;24.20;99.90;;;;;;1026815;28;20050;-68
2022/06/18 02:31:10;;;;;;;3.60;1.58;;;24.20;99.90;;;;;;1027103;28;20027;-67
2022/06/18 02:31:45;;;;;;;2.22;1.52;;;24.10;99.90;;;;;;1026788;28;20430;-67
2022/06/18 02:32:29;;;;;;;3.60;1.63;;;24.20;99.90;;;;;;1027049;28;20018;-67
2022/06/18 02:33:48;;;;;;;5.00;2.13;;;24.10;99.90;;;;;;1022807;29;20103;-67
2022/06/18 02:34:23;;;;;;;2.08;1.70;;;24.10;99.90;;;;;;1018375;29;20681;-67
2022/06/18 02:34:54;;;;;;;2.50;2.00;;;24.20;99.90;;;;;;1018189;29;20126;-68
2022/06/18 02:35:28;;;;;;;2.60;1.90;;;24.10;99.90;;;;;;1018593;29;20028;-66
2022/06/18 02:36:05;;;;;;;2.42;1.67;;;24.10;99.90;;;;;;1018469;29;20106;-67
2022/06/18 02:36:39;;;;;;;1.52;1.40;;;24.10;99.90;;;;;;1018352;29;20035;-67
2022/06/18 02:37:20;;;;;;;4.80;2.10;;;24.10;99.90;;;;;;1018188;29;20527;-67
2022/06/18 02:37:50;;;;;;;5.07;2.42;;;24.10;99.90;;;;;;1014429;29;20067;-68
2022/06/18 02:38:22;;;;;;;2.53;1.80;;;24.10;99.90;;;;;;1014583;29;20772;-69
2022/06/18 02:38:58;;;;;;;2.10;1.90;;;24.10;99.90;;;;;;1014354;29;20065;-66
2022/06/18 02:39:39;;;;;;;3.28;2.33;;;24.10;99.90;;;;;;1015198;29;20554;-67
2022/06/18 02:40:22;;;;;;;3.17;1.80;;;24.10;99.90;;;;;;1023991;28;20139;-67
2022/06/18 02:40:53;;;;;;;2.30;1.73;;;24.10;99.90;;;;;;1026540;28;20035;-68
2022/06/18 02:41:24;;;;;;;2.53;2.00;;;24.10;99.90;;;;;;1023730;28;20027;-67
2022/06/18 02:42:06;;;;;;;2.95;2.22;;;24.10;99.90;;;;;;1023015;29;20031;-67
2022/06/18 02:42:37;;;;;;;4.45;2.00;;;24.10;99.90;;;;;;1022695;29;20118;-67
2022/06/18 02:43:08;;;;;;;2.40;1.43;;;24.10;99.90;;;;;;1022948;29;20027;-67
2022/06/18 02:43:43;;;;;;;1.60;1.33;;;24.10;99.90;;;;;;1023001;29;20035;-67
2022/06/18 02:44:15;;;;;;;2.20;2.00;;;24.10;99.90;;;;;;1022841;29;20019;-67
2022/06/18 02:44:47;;;;;;;2.30;1.45;;;24.10;99.90;;;;;;1022983;29;20466;-67
2022/06/18 02:45:19;;;;;;;2.10;1.67;;;24.10;99.90;;;;;;1022869;29;20015;-68
2022/06/18 02:45:53;;;;;;;1.88;1.67;;;24.10;99.90;;;;;;1022691;29;20102;-67
2022/06/18 02:46:23;;;;;;;2.08;1.58;;;24.10;99.90;;;;;;1023165;29;20019;-67
2022/06/18 02:46:55;;;;;;;2.77;1.70;;;24.10;99.90;;;;;;1022804;29;20098;-67
2022/06/18 02:47:26;;;;;;;2.35;1.60;;;24.10;99.90;;;;;;1022897;29;20022;-67
2022/06/18 02:47:59;;;;;;;2.20;1.67;;;24.10;99.90;;;;;;1022883;29;20016;-67
2022/06/18 02:48:32;;;;;;;2.97;1.70;;;24.10;99.90;;;;;;1022628;29;20493;-68
2022/06/18 02:49:05;;;;;;;2.38;1.70;;;24.10;99.90;;;;;;1023303;29;20498;-68
2022/06/18 02:49:41;;;;;;;1.70;1.60;;;24.10;99.90;;;;;;1022075;29;20723;-67
2022/06/18 02:50:14;;;;;;;2.58;1.70;;;24.10;99.90;;;;;;1022732;29;20041;-67
2022/06/18 02:50:45;;;;;;;2.45;1.83;;;24.10;99.90;;;;;;1022245;29;20042;-67
2022/06/18 02:51:15;;;;;;;2.42;1.98;;;24.10;99.90;;;;;;1023139;28;20015;-68
2022/06/18 02:51:46;;;;;;;2.30;1.80;;;24.10;99.90;;;;;;1022748;29;20433;-67
2022/06/18 02:52:17;;;;;;;4.07;1.83;;;24.10;99.90;;;;;;1023018;29;20023;-67
2022/06/18 02:52:52;;;;;;;2.50;1.90;;;24.10;99.90;;;;;;1026095;28;20019;-68
2022/06/18 02:53:23;;;;;;;2.17;1.85;;;24.10;99.90;;;;;;1026502;28;20018;-68
2022/06/18 02:53:54;;;;;;;2.28;1.67;;;24.10;99.90;;;;;;1026443;28;20023;-67
2022/06/18 02:54:24;;;;;;;1.80;1.60;;;24.10;99.90;;;;;;1022517;29;20027;-68
2022/06/18 02:55:20;;;;;;;3.17;1.97;;;24.10;99.90;;;;;;1022387;29;20032;-67
2022/06/18 02:55:54;;;;;;;2.20;1.80;;;24.10;99.90;;;;;;1022209;29;20675;-67
2022/06/18 02:56:25;;;;;;;2.00;1.58;;;24.10;99.90;;;;;;1022413;29;20114;-69
2022/06/18 02:57:00;;;;;;;1.77;1.60;;;24.10;99.90;;;;;;1022665;29;20023;-67
2022/06/18 02:57:31;;;;;;;2.90;1.50;;;24.10;99.90;;;;;;1022558;29;20085;-68
2022/06/18 02:58:27;;;;;;;2.40;1.53;;;24.10;99.90;;;;;;1022412;29;20024;-67
2022/06/18 02:58:57;;;;;;;3.13;1.95;;;24.10;99.90;;;;;;1022872;29;20043;-67
2022/06/18 02:59:28;;;;;;;2.40;1.80;;;24.10;99.90;;;;;;1022720;29;20020;-67
2022/06/18 02:59:59;;;;;;;6.20;2.67;;;24.10;99.90;;;;;;1022624;29;20101;-67
2022/06/18 03:00:31;;;;;;;2.87;2.03;;;24.10;99.90;;;;;;1022315;29;20023;-67
2022/06/18 03:01:07;;;;;;;3.10;2.20;;;24.10;99.90;;;;;;1022631;29;20383;-68
2022/06/18 03:01:38;;;;;;;2.67;2.28;;;24.10;99.90;;;;;;1022920;29;20066;-67
2022/06/18 03:02:09;;;;;;;4.07;2.17;;;24.10;99.90;;;;;;1022869;29;20074;-66
2022/06/18 03:02:39;;;;;;;2.07;1.87;;;24.10;99.90;;;;;;1022815;29;20019;-67
2022/06/18 03:03:13;;;;;;;2.47;2.27;;;24.10;99.90;;;;;;1022878;29;20030;-68
2022/06/18 03:03:56;;;;;;;3.30;2.38;;;24.10;99.90;;;;;;1026237;28;20023;-68
2022/06/18 03:04:26;;;;;;;2.00;1.77;;;24.10;99.90;;;;;;1026497;28;20019;-68
2022/06/18 03:04:57;;;;;;;2.77;2.10;;;24.10;99.90;;;;;;1026644;28;20027;-67
2022/06/18 03:05:28;;;;;;;3.00;2.43;;;24.10;99.90;;;;;;1028015;28;20481;-68
2022/06/18 03:05:59;;;;;;;3.17;1.57;;;24.10;99.90;;;;;;1030716;28;20705;-68
2022/06/18 03:06:33;;;;;;;3.53;1.97;;;24.10;99.90;;;;;;1029980;28;20017;-68
2022/06/18 03:07:03;;;;;;;3.60;2.05;;;24.10;99.90;;;;;;1027344;28;20049;-69
2022/06/18 03:07:34;;;;;;;1.77;1.50;;;24.10;99.90;;;;;;1026494;28;20029;-68